Whiteman Air Force Base, Missouri
Current Conditions -  °F | °C
As of 3:58 AM on Saturday 22 Nov 2014 (Local Time) from KSZL Reporting Station
Broken Clouds Broken Clouds  
Wind Chill: 51°   Ceiling: 7000
Heat Index: 51°   Visibility: 10mi
Dew Point: 48°   Wind: 13mph
Humidity: 89%   Direction: 210°SSW
Pressure: 30.03"   Gusts: NA
Location:  38.7318°N, 93.5731°W
Report Text: KSZL 220958Z AUTO 21011KT 10SM SCT016 BKN070 11/09 A3003 RMK AO2 SLP174 T01060088 $
Loading
Personal Weather Stations






























Interactive Weather Map New forecast layout! Learn more

10-Day Weather Forecast

Advertisements
Track Severe Weather on mobile